Time;durP1;ratioP1;P1;durP2;ratioP2;P2;SDS_P1;SDS_P2;PMS_P1;PMS_P2;Temp;Humidity;BMP_temperature;BMP_pressure;BME280_temperature;BME280_humidity;BME280_pressure;Samples;Min_cycle;Max_cycle;Signal;HPM_P1;HPM_P2
2022/09/19 00:01:19;;;;;;;0.95;0.47;;;;;;;10.12;78.09;97801.94;1756818;81;21004;-44
2022/09/19 00:03:53;;;;;;;0.65;0.30;;;;;;;10.16;78.05;97797.30;1723380;83;21192;-44
2022/09/19 00:06:20;;;;;;;2.85;0.65;;;;;;;10.13;78.33;97800.74;1723444;83;20956;-44
2022/09/19 00:08:47;;;;;;;1.50;0.33;;;;;;;10.10;78.50;97808.31;1715751;83;20941;-44
2022/09/19 00:11:18;;;;;;;0.70;0.50;;;;;;;10.07;78.82;97805.05;1715547;83;21088;-44
2022/09/19 00:13:47;;;;;;;0.65;0.42;;;;;;;10.12;78.88;97800.58;1715625;83;26027;-44
2022/09/19 00:16:34;;;;;;;1.65;0.60;;;;;;;10.15;79.02;97809.26;1715658;83;21192;-44
2022/09/19 00:19:04;;;;;;;0.60;0.55;;;;;;;10.13;79.44;97812.92;1751075;81;20963;-44
2022/09/19 00:21:38;;;;;;;2.35;0.68;;;;;;;10.12;79.72;97812.16;1714833;83;20941;-44
2022/09/19 00:26:55;;;;;;;2.25;0.70;;;;;;;10.19;80.14;97810.03;1714821;83;21522;-44
2022/09/19 00:29:22;;;;;;;0.98;0.80;;;;;;;10.16;80.38;97809.48;1714762;83;23107;-44
2022/09/19 00:31:49;;;;;;;1.10;0.90;;;;;;;10.19;80.67;97810.81;1714842;83;21092;-44
2022/09/19 00:34:17;;;;;;;2.02;0.90;;;;;;;10.26;80.76;97814.08;1714913;83;20980;-44
2022/09/19 00:36:44;;;;;;;1.45;0.98;;;;;;;10.29;80.81;97807.86;1714748;83;21041;-44
2022/09/19 00:39:15;;;;;;;1.00;0.90;;;;;;;10.29;81.06;97813.28;1714889;83;21043;-44
2022/09/19 00:41:44;;;;;;;1.65;1.12;;;;;;;10.33;81.15;97811.32;1714939;83;21243;-44
2022/09/19 00:44:29;;;;;;;3.62;1.30;;;;;;;10.37;81.14;97814.78;1715025;83;20997;-44
2022/09/19 00:47:12;;;;;;;2.17;1.30;;;;;;;10.39;81.29;97813.81;1715031;83;21590;-44
2022/09/19 00:49:44;;;;;;;1.20;0.90;;;;;;;10.40;81.33;97817.48;1715059;83;21534;-44
2022/09/19 00:52:15;;;;;;;2.33;1.40;;;;;;;10.43;81.37;97817.27;1714999;83;21513;-44
2022/09/19 00:54:44;;;;;;;1.35;1.20;;;;;;;10.51;81.22;97817.41;1714737;83;21262;-44
2022/09/19 00:57:13;;;;;;;1.98;1.22;;;;;;;10.54;81.27;97821.28;1714946;83;20969;-44
2022/09/19 00:59:44;;;;;;;1.40;1.20;;;;;;;10.53;81.25;97820.50;1715482;83;21547;-44
2022/09/19 01:02:11;;;;;;;4.15;1.35;;;;;;;10.53;81.35;97838.12;1715073;83;20937;-44
2022/09/19 01:04:41;;;;;;;1.60;1.25;;;;;;;10.58;81.17;97822.80;1715058;83;21088;-44
2022/09/19 01:07:22;;;;;;;3.22;1.30;;;;;;;10.64;80.89;97819.09;1733633;81;21153;-44
2022/09/19 01:09:56;;;;;;;1.37;1.20;;;;;;;10.63;81.02;97823.73;1756906;81;21059;-44
2022/09/19 01:12:56;;;;;;;2.17;1.55;;;;;;;10.66;80.95;97828.35;1741838;81;21045;-44
2022/09/19 01:15:51;;;;;;;2.85;1.50;;;;;;;10.71;80.89;97827.94;1720393;83;20980;-44
2022/09/19 01:18:21;;;;;;;2.75;1.72;;;;;;;10.72;80.85;97820.00;1720262;83;21092;-44
2022/09/19 01:24:25;;;;;;;2.47;1.50;;;;;;;10.73;80.68;97821.55;1720080;83;21013;-44
2022/09/19 01:27:20;;;;;;;2.37;1.72;;;;;;;10.75;80.67;97823.84;1720462;83;21049;-44
2022/09/19 01:29:55;;;;;;;3.25;1.70;;;;;;;10.72;80.63;97824.06;1720103;83;20933;-44
2022/09/19 01:32:26;;;;;;;2.60;1.95;;;;;;;10.75;80.61;97828.68;1720236;83;21084;-44
2022/09/19 01:35:00;;;;;;;2.62;1.80;;;;;;;10.81;79.97;97827.68;1720253;83;21201;-44
2022/09/19 01:37:45;;;;;;;3.08;2.10;;;;;;;10.83;79.78;97833.48;1719988;83;21872;-44
2022/09/19 01:40:12;;;;;;;4.17;1.70;;;;;;;10.80;79.73;97830.97;1720311;83;21647;-44
2022/09/19 01:42:55;;;;;;;2.52;1.92;;;;;;;10.78;79.53;97837.39;1719460;83;20911;-44
2022/09/19 01:45:27;;;;;;;3.15;1.90;;;;;;;10.80;79.49;97842.39;1720507;83;20997;-44
2022/09/19 01:48:07;;;;;;;2.75;1.57;;;;;;;10.76;79.89;97864.11;1720287;83;21306;-44
2022/09/19 01:51:14;;;;;;;3.08;1.42;;;;;;;10.74;79.66;97850.78;1719872;83;21513;-44
2022/09/19 01:54:13;;;;;;;3.12;1.75;;;;;;;10.75;78.75;97867.98;1720028;83;21309;-44
2022/09/19 01:57:13;;;;;;;1.67;1.30;;;;;;;10.76;78.74;97861.98;1716428;83;21546;-44
2022/09/19 02:00:11;;;;;;;3.12;1.50;;;;;;;10.74;78.57;97865.11;1720119;83;21036;-44
2022/09/19 02:03:07;;;;;;;2.33;1.20;;;;;;;10.78;78.50;97856.95;1720016;83;23131;-44
2022/09/19 02:05:41;;;;;;;3.55;1.30;;;;;;;10.80;77.78;97867.56;1720306;83;21821;-44
2022/09/19 02:08:41;;;;;;;2.02;1.20;;;;;;;10.77;77.31;97870.30;1715320;83;21004;-44
2022/09/19 02:11:18;;;;;;;;;;;;;;;10.78;77.75;97877.28;1710126;84;21515;-44
2022/09/19 02:13:51;;;;;;;1.52;1.42;;;;;;;10.80;78.24;97886.55;1694139;84;20114;-44
2022/09/19 02:16:27;;;;;;;3.05;1.95;;;;;;;10.73;79.23;97891.25;1694061;84;21126;-44
2022/09/19 02:19:08;;;;;;;2.70;1.67;;;;;;;10.73;79.58;97901.51;1707156;83;20951;-44
2022/09/19 02:21:50;;;;;;;2.20;1.80;;;;;;;10.72;79.60;97904.02;1706995;84;21021;-44
2022/09/19 02:24:22;;;;;;;3.25;2.22;;;;;;;10.79;79.56;97906.71;1706967;84;21006;-44
2022/09/19 02:26:51;;;;;;;4.25;2.10;;;;;;;10.78;79.44;97913.29;1706890;84;21109;-44
2022/09/19 02:29:20;;;;;;;2.75;1.92;;;;;;;10.75;79.72;97916.77;1706908;83;21091;-44
2022/09/19 02:31:47;;;;;;;5.90;2.40;;;;;;;10.73;80.04;97909.64;1706895;84;21085;-44
2022/09/19 02:34:14;;;;;;;3.10;2.42;;;;;;;10.79;79.99;97914.84;1706844;84;21547;-44
2022/09/19 02:36:46;;;;;;;3.25;2.17;;;;;;;10.83;79.80;97922.37;1706855;84;21638;-44
2022/09/19 02:39:44;;;;;;;2.80;1.85;;;;;;;10.81;79.61;97922.56;1706997;83;21061;-44
2022/09/19 02:42:43;;;;;;;3.72;1.92;;;;;;;10.80;79.80;97928.56;1705983;84;21246;-44
2022/09/19 02:45:28;;;;;;;3.42;2.20;;;;;;;10.81;79.44;97927.98;1706800;83;20950;-44
2022/09/19 02:48:08;;;;;;;6.72;2.33;;;;;;;10.76;79.44;97929.17;1706737;84;20922;-44
2022/09/19 02:50:40;;;;;;;3.45;2.02;;;;;;;10.73;79.66;97940.81;1707061;84;21905;-44
2022/09/19 02:53:12;;;;;;;3.05;2.12;;;;;;;10.70;79.83;97932.09;1706892;83;21511;-44
2022/09/19 02:55:51;;;;;;;3.37;2.55;;;;;;;10.75;79.73;97943.88;1706858;84;21254;-44
2022/09/19 02:58:21;;;;;;;3.30;2.15;;;;;;;10.76;79.56;97954.92;1707010;84;21081;-44
2022/09/19 03:00:52;;;;;;;;;;;;;;;10.73;79.73;97948.94;1709461;83;21028;-44
2022/09/19 03:06:24;;;;;;;3.47;2.15;;;;;;;10.74;79.51;97961.34;1707252;84;21029;-44
2022/09/19 03:08:51;;;;;;;3.22;2.20;;;;;;;10.76;79.42;97964.41;1709801;83;21137;-44
2022/09/19 03:11:20;;;;;;;2.55;2.17;;;;;;;10.74;79.31;97972.76;1712400;83;21587;-44
2022/09/19 03:13:47;;;;;;;3.17;2.00;;;;;;;10.73;79.28;97973.34;1712396;83;21029;-44
2022/09/19 03:16:26;;;;;;;3.10;2.52;;;;;;;10.79;79.05;97981.26;1712517;83;20989;-44
2022/09/19 03:18:55;;;;;;;4.60;2.35;;;;;;;10.80;78.90;97977.36;1712372;83;22154;-44
2022/09/19 03:21:24;;;;;;;3.22;2.15;;;;;;;10.78;78.80;97985.12;1712625;83;21139;-44
2022/09/19 03:23:52;;;;;;;2.70;2.35;;;;;;;10.78;78.92;97985.12;1686586;83;21098;-44
2022/09/19 03:26:34;;;;;;;4.97;2.30;;;;;;;10.83;78.62;97986.08;1712424;83;21573;-44
2022/09/19 03:29:05;;;;;;;3.77;2.10;;;;;;;10.84;78.32;97998.44;1712382;83;21599;-44
2022/09/19 03:31:46;;;;;;;2.40;1.87;;;;;;;10.79;78.59;98002.95;1711695;83;20961;-44
2022/09/19 03:34:15;;;;;;;3.58;2.40;;;;;;;10.78;78.40;98007.39;1712886;83;21069;-44
2022/09/19 03:36:43;;;;;;;3.95;1.92;;;;;;;10.83;78.35;98010.48;1712627;83;20978;-44
2022/09/19 03:39:10;;;;;;;3.62;2.60;;;;;;;10.83;78.16;98010.48;1712965;83;21041;-44
2022/09/19 03:41:39;;;;;;;3.47;2.22;;;;;;;10.79;78.17;98015.14;1712257;83;21512;-44
2022/09/19 03:44:07;;;;;;;4.62;2.45;;;;;;;10.75;78.21;98019.78;1712866;83;21026;-44
2022/09/19 03:46:35;;;;;;;3.00;2.70;;;;;;;10.78;77.95;98019.59;1712540;83;21143;-44
2022/09/19 03:49:02;;;;;;;3.70;2.55;;;;;;;10.79;78.13;98031.98;1712904;83;21503;-44
2022/09/19 03:51:31;;;;;;;2.87;2.15;;;;;;;10.75;78.09;98031.98;1712510;83;20973;-44
2022/09/19 03:53:59;;;;;;;3.47;2.33;;;;;;;10.75;77.99;98036.05;1713056;83;21527;-44
2022/09/19 03:56:28;;;;;;;4.25;2.60;;;;;;;10.81;77.75;98035.06;1712590;83;21074;-44
2022/09/19 03:58:54;;;;;;;3.02;2.58;;;;;;;10.81;77.64;98039.91;1712693;83;23141;-44
2022/09/19 04:01:23;;;;;;;3.02;2.65;;;;;;;10.80;77.89;98043.77;1712498;83;21001;-44
2022/09/19 04:03:52;;;;;;;4.50;2.60;;;;;;;10.80;77.78;98051.91;1712512;83;21559;-44
2022/09/19 04:06:20;;;;;;;3.25;2.27;;;;;;;10.80;77.61;98049.20;1712629;83;21532;-44
2022/09/19 04:08:47;;;;;;;4.17;2.70;;;;;;;10.81;77.77;98058.88;1713518;83;21041;-44
2022/09/19 04:11:14;;;;;;;4.17;2.25;;;;;;;10.81;77.97;98058.88;1715679;83;21143;-44
2022/09/19 04:13:42;;;;;;;3.50;2.47;;;;;;;10.81;77.86;98070.30;1715405;83;21051;-44
2022/09/19 04:16:14;;;;;;;6.35;2.50;;;;;;;10.87;77.73;98069.52;1714914;83;21903;-44
2022/09/19 04:18:46;;;;;;;4.15;2.80;;;;;;;10.89;77.72;98079.38;1715717;83;20961;-44
2022/09/19 04:21:13;;;;;;;2.77;2.22;;;;;;;10.85;77.40;98075.91;1715757;83;21096;-44
2022/09/19 04:23:45;;;;;;;2.95;2.12;;;;;;;10.87;77.57;98079.02;1715156;83;21217;-44
2022/09/19 04:26:25;;;;;;;3.83;2.62;;;;;;;10.89;77.48;98091.58;1713725;83;21052;-44
2022/09/19 04:28:53;;;;;;;3.00;2.62;;;;;;;10.89;77.70;98088.86;1715750;83;21026;-44
2022/09/19 04:31:23;;;;;;;3.47;2.08;;;;;;;10.87;77.83;98087.14;1715710;83;20961;-44
2022/09/19 04:33:54;;;;;;;2.52;2.33;;;;;;;10.88;77.74;98092.77;1720618;83;21618;-44
2022/09/19 04:36:20;;;;;;;4.67;2.27;;;;;;;10.93;77.60;98101.08;1720490;83;21210;-44
2022/09/19 04:38:48;;;;;;;4.35;2.60;;;;;;;10.94;77.58;98094.47;1720451;83;21016;-44
2022/09/19 04:41:17;;;;;;;2.07;1.83;;;;;;;10.89;77.52;98105.13;1720104;83;20976;-44
2022/09/19 04:43:46;;;;;;;3.77;2.42;;;;;;;10.92;77.45;98106.88;1720145;83;21033;-44
2022/09/19 04:46:21;;;;;;;3.98;2.75;;;;;;;10.97;77.50;98115.97;1718896;83;21157;-44
2022/09/19 04:48:48;;;;;;;2.77;2.02;;;;;;;10.96;77.62;98116.55;1720254;83;23116;-44
2022/09/19 04:51:16;;;;;;;2.47;1.95;;;;;;;10.96;77.89;98121.20;1720377;83;20968;-44
2022/09/19 04:53:43;;;;;;;5.42;2.50;;;;;;;10.96;77.77;98120.63;1720229;83;20898;-44
2022/09/19 04:56:11;;;;;;;3.20;2.60;;;;;;;10.96;78.10;98121.98;1720362;83;21566;-44
2022/09/19 04:58:41;;;;;;;5.97;3.37;;;;;;;10.97;78.17;98134.95;1720279;83;20977;-44
2022/09/19 05:01:10;;;;;;;4.30;2.80;;;;;;;10.95;78.43;98131.27;1715818;83;21236;-44
2022/09/19 05:03:38;;;;;;;3.85;2.98;;;;;;;10.94;78.36;98134.39;1720354;83;20974;-44
2022/09/19 05:06:06;;;;;;;2.98;2.52;;;;;;;10.98;78.12;98148.71;1720638;83;21555;-44
2022/09/19 05:08:34;;;;;;;5.70;3.17;;;;;;;10.99;78.19;98148.91;1713178;83;21148;-44
2022/09/19 05:11:05;;;;;;;3.33;2.85;;;;;;;10.97;78.36;98153.36;1743206;81;21013;-44
2022/09/19 05:13:34;;;;;;;4.03;2.70;;;;;;;10.98;78.26;98150.84;1743453;82;22007;-44
2022/09/19 05:16:01;;;;;;;4.12;3.22;;;;;;;11.01;78.18;98160.12;1743216;82;20966;-44
2022/09/19 05:18:35;;;;;;;;;;;;;;;11.03;78.15;98164.01;1710041;84;21532;-44
2022/09/19 05:21:05;;;;;;;4.30;3.17;;;;;;;10.98;78.21;98173.12;1686817;84;20219;-44
2022/09/19 05:23:32;;;;;;;4.12;2.70;;;;;;;10.86;78.71;98176.42;1706955;84;21945;-44
2022/09/19 05:26:05;;;;;;;3.60;3.02;;;;;;;10.92;78.60;98184.94;1699982;84;21081;-44
2022/09/19 05:28:32;;;;;;;5.40;3.30;;;;;;;10.96;78.32;98186.28;1706893;84;21001;-44
2022/09/19 05:31:05;;;;;;;7.75;3.30;;;;;;;10.94;78.18;98199.47;1699751;84;20989;-44
2022/09/19 05:33:29;;;;;;;4.15;3.00;;;;;;;10.93;78.26;98195.98;1706079;84;21020;-44
2022/09/19 05:36:00;;;;;;;4.83;2.92;;;;;;;10.93;78.10;98199.27;1699908;84;20968;-44
2022/09/19 05:38:35;;;;;;;4.22;3.17;;;;;;;10.99;78.02;98204.50;1704947;84;21314;-44
2022/09/19 05:41:10;;;;;;;5.58;3.40;;;;;;;11.02;78.00;98213.20;1688509;84;21904;-44
2022/09/19 05:43:41;;;;;;;4.08;2.72;;;;;;;10.99;77.75;98211.28;1741234;82;20939;-44
2022/09/19 05:46:08;;;;;;;5.72;3.15;;;;;;;11.00;77.82;98216.87;1741117;82;21663;-44
2022/09/19 05:48:37;;;;;;;3.85;3.20;;;;;;;11.06;77.44;98220.75;1741350;82;21683;-44
2022/09/19 05:51:05;;;;;;;4.37;2.95;;;;;;;11.05;77.03;98219.19;1741590;82;21241;-44
2022/09/19 05:56:19;;;;;;;4.35;2.75;;;;;;;11.06;77.39;98226.17;1739269;82;21023;-44
2022/09/19 05:58:48;;;;;;;3.75;2.80;;;;;;;11.12;76.71;98238.19;1740979;82;21597;-44
2022/09/19 06:01:15;;;;;;;4.78;3.08;;;;;;;11.11;76.54;98232.56;1744917;82;21020;-44
2022/09/19 06:03:42;;;;;;;4.33;2.42;;;;;;;11.12;76.67;98247.67;1741353;82;21214;-44
2022/09/19 06:06:18;;;;;;;3.20;2.25;;;;;;;11.10;76.81;98252.12;1741251;82;21026;-44
2022/09/19 06:08:47;;;;;;;2.95;2.60;;;;;;;11.20;76.63;98253.28;1742217;82;21074;-44
2022/09/19 06:11:16;;;;;;;4.47;2.67;;;;;;;11.23;76.03;98255.23;1749344;82;21018;-44
2022/09/19 06:16:29;;;;;;;6.97;2.65;;;;;;;11.26;76.20;98264.71;1749365;82;21226;-44
2022/09/19 06:19:15;;;;;;;3.90;2.20;;;;;;;11.36;76.23;98266.44;1749368;82;21070;-44
2022/09/19 06:21:42;;;;;;;3.85;2.25;;;;;;;11.46;75.86;98267.77;1749124;82;21031;-44
2022/09/19 06:24:10;;;;;;;2.72;2.17;;;;;;;11.50;75.73;98282.11;1749071;82;21633;-44
2022/09/19 06:26:37;;;;;;;2.02;1.82;;;;;;;11.55;76.07;98289.85;1749230;82;21094;-44
2022/09/19 06:29:06;;;;;;;5.12;2.55;;;;;;;11.63;76.06;98303.59;1749246;82;21248;-44
2022/09/19 06:31:35;;;;;;;2.42;2.22;;;;;;;11.67;75.09;98298.92;1749359;82;20999;-44
2022/09/19 06:34:12;;;;;;;7.00;2.20;;;;;;;11.65;75.35;98308.06;1748345;82;21375;-44
2022/09/19 06:36:39;;;;;;;2.92;1.95;;;;;;;11.37;75.64;98267.41;1749624;82;21059;-44
2022/09/19 06:39:07;;;;;;;2.30;2.10;;;;;;;11.67;75.28;98317.14;1749485;82;21047;-44
2022/09/19 06:41:36;;;;;;;3.72;2.60;;;;;;;11.68;75.24;98320.06;1747943;82;22090;-44
2022/09/19 06:44:10;;;;;;;3.60;2.15;;;;;;;11.67;75.33;98319.28;1748862;82;21528;-44
2022/09/19 06:46:42;;;;;;;3.60;2.12;;;;;;;11.63;75.13;98316.38;1746993;82;21019;-44
2022/09/19 06:49:10;;;;;;;2.90;2.10;;;;;;;11.66;75.49;98313.69;1747892;82;21090;-44
2022/09/19 06:51:51;;;;;;;2.55;2.00;;;;;;;11.70;74.81;98328.02;1748924;82;20999;-44
2022/09/19 06:54:18;;;;;;;4.05;2.52;;;;;;;11.72;74.88;98324.34;1749806;82;21575;-44
2022/09/19 06:56:45;;;;;;;3.65;2.40;;;;;;;11.72;74.82;98328.42;1749438;82;21010;-44
2022/09/19 06:59:13;;;;;;;2.83;1.95;;;;;;;11.76;74.90;98330.53;1749206;82;21026;-44
2022/09/19 07:01:40;;;;;;;4.22;2.50;;;;;;;11.83;73.94;98330.33;1749443;82;21027;-44
2022/09/19 07:04:07;;;;;;;3.00;2.30;;;;;;;11.86;73.95;98336.36;1749180;82;21106;-45
2022/09/19 07:06:36;;;;;;;3.00;2.15;;;;;;;11.81;73.58;98344.91;1747683;82;21242;-44
2022/09/19 07:09:09;;;;;;;;;;;;;;;11.76;74.13;98344.11;1751559;82;21557;-45
2022/09/19 07:11:37;;;;;;;3.27;2.40;;;;;;;11.74;74.07;98350.53;1749174;82;20147;-44
2022/09/19 07:14:05;;;;;;;5.12;2.65;;;;;;;11.70;73.79;98351.67;1749239;82;21474;-44
2022/09/19 07:16:33;;;;;;;3.42;2.45;;;;;;;11.70;73.98;98351.67;1749096;82;20916;-44
2022/09/19 07:19:01;;;;;;;3.12;2.55;;;;;;;11.67;73.73;98341.58;1749389;82;21340;-44
2022/09/19 07:21:45;;;;;;;4.83;2.20;;;;;;;11.68;73.88;98358.07;1747737;82;21042;-44
2022/09/19 07:24:13;;;;;;;4.85;2.60;;;;;;;11.72;73.83;98354.77;1748880;82;21019;-44
2022/09/19 07:26:43;;;;;;;5.30;2.70;;;;;;;11.74;73.25;98366.83;1746143;82;21113;-44
2022/09/19 07:29:09;;;;;;;3.72;2.45;;;;;;;11.78;73.14;98362.73;1749247;82;21042;-44
2022/09/19 07:31:37;;;;;;;3.02;2.22;;;;;;;11.81;73.13;98363.33;1749300;82;23200;-44
2022/09/19 07:34:04;;;;;;;6.15;2.80;;;;;;;11.84;72.61;98376.70;1749277;82;20974;-44
2022/09/19 07:36:33;;;;;;;3.47;2.80;;;;;;;11.91;72.41;98375.34;1749455;82;21521;-44
2022/09/19 07:39:01;;;;;;;5.58;3.17;;;;;;;11.92;73.10;98372.79;1749204;82;21592;-45
2022/09/19 07:41:34;;;;;;;4.58;2.87;;;;;;;11.96;71.81;98376.27;1748169;82;21014;-44
2022/09/19 07:44:20;;;;;;;3.92;3.30;;;;;;;12.09;72.34;98381.48;1749641;82;21516;-44
2022/09/19 07:49:55;;;;;;;4.03;3.12;;;;;;;12.34;71.07;98399.84;1726735;82;21022;-44
2022/09/19 07:52:46;;;;;;;9.30;2.70;;;;;;;12.32;70.05;98388.59;1748483;82;21019;-44
2022/09/19 07:55:14;;;;;;;5.15;2.72;;;;;;;12.35;70.26;98394.58;1749336;82;21031;-45
2022/09/19 07:57:56;;;;;;;6.60;3.00;;;;;;;12.39;69.37;98399.41;1749565;82;21307;-45
2022/09/19 08:00:27;;;;;;;5.80;2.90;;;;;;;12.39;69.12;98392.63;1748356;82;21011;-45
2022/09/19 08:03:08;;;;;;;7.75;3.37;;;;;;;12.35;69.01;98405.45;1749723;82;21021;-44
2022/09/19 08:05:40;;;;;;;5.35;2.58;;;;;;;12.33;68.81;98409.75;1749555;82;20971;-44
2022/09/19 08:08:10;;;;;;;5.20;2.90;;;;;;;12.33;69.00;98412.47;1750072;82;21096;-44
2022/09/19 08:10:40;;;;;;;5.15;2.95;;;;;;;12.39;68.57;98420.41;1749307;82;21608;-44
2022/09/19 08:13:09;;;;;;;5.35;3.00;;;;;;;12.37;68.50;98414.00;1749577;82;21009;-45
2022/09/19 08:15:37;;;;;;;5.30;3.15;;;;;;;12.37;68.31;98415.36;1749358;82;21006;-44
2022/09/19 08:18:13;;;;;;;4.50;2.55;;;;;;;12.37;67.90;98422.16;1732406;82;21611;-44
2022/09/19 08:20:41;;;;;;;5.33;3.10;;;;;;;12.42;68.49;98416.31;1749778;82;21034;-44
2022/09/19 08:23:16;;;;;;;4.15;2.98;;;;;;;12.54;68.66;98414.50;1749677;82;21206;-45
2022/09/19 08:25:46;;;;;;;5.05;2.75;;;;;;;12.70;68.73;98424.15;1749608;82;21039;-44
2022/09/19 08:28:14;;;;;;;;;;;;;;;12.90;68.64;98419.19;1751825;82;21046;-44
2022/09/19 08:30:42;;;;;;;5.30;2.70;;;;;;;13.11;65.94;98425.13;1749274;82;20182;-45
2022/09/19 08:33:10;;;;;;;11.60;2.92;;;;;;;13.20;65.54;98439.07;1749414;82;21446;-45
2022/09/19 08:35:39;;;;;;;;;;;;;;;13.31;65.47;98439.00;1752009;82;21137;-44
2022/09/19 08:38:10;;;;;;;6.10;2.72;;;;;;;13.28;63.50;98431.61;1749213;82;20159;-45
2022/09/19 08:40:46;;;;;;;5.70;3.10;;;;;;;13.12;64.51;98441.62;1749232;82;21494;-45
2022/09/19 08:43:18;;;;;;;6.08;3.17;;;;;;;13.02;64.38;98444.56;1749159;82;21811;-44
2022/09/19 08:46:15;;;;;;;7.05;3.02;;;;;;;12.93;64.19;98444.23;1749190;82;21077;-45
2022/09/19 08:48:58;;;;;;;6.00;2.98;;;;;;;12.91;64.84;98443.09;1749139;82;20951;-43
2022/09/19 08:51:53;;;;;;;5.12;3.10;;;;;;;12.86;64.95;98454.39;1749216;81;20975;-43
2022/09/19 08:54:37;;;;;;;4.50;3.08;;;;;;;12.83;65.39;98464.10;1749280;82;20970;-43
2022/09/19 08:57:29;;;;;;;5.50;2.92;;;;;;;12.77;65.22;98458.91;1749422;82;21017;-44
2022/09/19 09:00:02;;;;;;;6.80;3.05;;;;;;;12.75;64.55;98455.02;1734229;82;21060;-45
2022/09/19 09:02:44;;;;;;;6.25;2.70;;;;;;;12.77;65.22;98467.64;1749414;82;21091;-44
2022/09/19 09:05:14;;;;;;;7.80;3.00;;;;;;;12.86;65.16;98474.79;1749441;82;21524;-45
2022/09/19 09:08:12;;;;;;;5.05;3.00;;;;;;;12.99;64.91;98469.86;1749567;82;21014;-44
2022/09/19 09:10:55;;;;;;;8.28;3.47;;;;;;;13.10;65.83;98468.45;1747101;82;20935;-44
2022/09/19 09:13:55;;;;;;;4.58;2.83;;;;;;;13.29;65.35;98470.70;1749295;82;21490;-44
2022/09/19 09:16:44;;;;;;;7.53;3.58;;;;;;;13.49;64.17;98483.20;1748807;82;22057;-45
2022/09/19 09:19:38;;;;;;;6.97;2.80;;;;;;;13.63;63.24;98480.97;1749007;82;21290;-44
2022/09/19 09:22:35;;;;;;;6.67;2.80;;;;;;;13.75;62.38;98492.14;1747872;82;20978;-44
2022/09/19 09:25:18;;;;;;;8.18;2.72;;;;;;;13.85;62.18;98493.23;1704762;82;21598;-44
2022/09/19 09:28:05;;;;;;;4.83;2.67;;;;;;;13.83;60.60;98479.25;1749312;82;21038;-44
2022/09/19 09:30:31;;;;;;;6.17;2.60;;;;;;;13.76;59.93;98490.97;1748737;82;22160;-44
2022/09/19 09:33:23;;;;;;;4.37;2.45;;;;;;;13.72;60.51;98501.70;1744385;82;21094;-44
2022/09/19 09:35:59;;;;;;;5.55;2.87;;;;;;;13.81;61.20;98488.41;1749618;82;21027;-44
2022/09/19 09:38:48;;;;;;;5.55;2.72;;;;;;;14.04;59.40;98489.95;1748866;82;21567;-44
2022/09/19 09:41:51;;;;;;;7.95;2.65;;;;;;;14.34;59.22;98486.55;1748448;82;21094;-45
2022/09/19 09:44:42;;;;;;;5.60;2.70;;;;;;;14.60;57.02;98492.73;1749454;82;21201;-44
2022/09/19 09:47:30;;;;;;;5.33;2.35;;;;;;;14.68;55.70;98488.73;1739241;82;21038;-45
2022/09/19 09:50:19;;;;;;;7.17;2.50;;;;;;;14.60;55.68;98491.37;1749237;82;21037;-45
2022/09/19 09:53:02;;;;;;;6.27;2.53;;;;;;;14.51;55.35;98494.41;1744551;82;21609;-44
2022/09/19 09:59:08;;;;;;;9.43;2.10;;;;;;;14.70;56.67;98499.25;1692574;82;23208;-45
2022/09/19 10:04:40;;;;;;;6.33;2.17;;;;;;;15.01;53.79;98510.95;1749345;82;21573;-45
2022/09/19 10:07:34;;;;;;;7.05;2.42;;;;;;;15.07;52.78;98510.09;1749097;82;21047;-44
2022/09/19 10:10:07;;;;;;;4.15;2.20;;;;;;;15.11;52.25;98508.09;1749179;82;21046;-45
2022/09/19 10:12:55;;;;;;;5.05;2.08;;;;;;;15.10;52.66;98516.09;1749249;82;21214;-45
2022/09/19 10:15:24;;;;;;;4.90;2.17;;;;;;;15.05;53.17;98517.94;1749088;82;21079;-45
2022/09/19 10:18:13;;;;;;;5.22;2.50;;;;;;;15.02;52.64;98520.10;1749077;82;21101;-45
2022/09/19 10:20:49;;;;;;;6.37;2.15;;;;;;;15.06;53.74;98519.46;1748574;82;21006;-45
2022/09/19 10:23:25;;;;;;;5.37;2.30;;;;;;;15.14;51.77;98522.30;1749509;82;21086;-45
2022/09/19 10:26:07;;;;;;;5.55;2.60;;;;;;;15.22;52.04;98518.28;1744687;82;21330;-45
2022/09/19 10:28:41;;;;;;;4.42;2.10;;;;;;;15.35;51.77;98518.49;1749322;82;21523;-45
2022/09/19 10:31:32;;;;;;;5.45;2.12;;;;;;;15.64;51.69;98520.25;1695053;82;21089;-45
2022/09/19 10:34:09;;;;;;;6.05;2.00;;;;;;;15.96;50.46;98527.38;1749001;82;20955;-45
2022/09/19 10:36:36;;;;;;;7.20;2.27;;;;;;;16.27;49.46;98534.08;1749249;82;21035;-45
2022/09/19 10:39:12;;;;;;;7.30;1.82;;;;;;;16.48;47.98;98493.45;1697066;82;21891;-45
2022/09/19 10:41:40;;;;;;;10.15;2.35;;;;;;;16.61;47.29;98531.16;1719621;82;21031;-45
2022/09/19 10:44:25;;;;;;;3.50;2.00;;;;;;;16.79;48.92;98531.02;1749423;82;20990;-45
2022/09/19 10:46:56;;;;;;;6.20;1.92;;;;;;;16.94;46.44;98529.52;1749183;82;20990;-45
2022/09/19 10:49:46;;;;;;;3.15;1.52;;;;;;;16.85;46.91;98542.23;1749266;82;21050;-45
2022/09/19 10:52:30;;;;;;;2.72;1.75;;;;;;;16.59;47.16;98541.17;1749132;82;21222;-45
2022/09/19 10:54:56;;;;;;;4.53;2.30;;;;;;;16.31;47.80;98552.59;1749255;82;21602;-44
2022/09/19 10:57:45;;;;;;;6.33;2.10;;;;;;;16.06;48.34;98562.58;1697258;82;20923;-45
2022/09/19 11:00:22;;;;;;;4.72;1.95;;;;;;;15.80;48.84;98556.53;1749405;82;21600;-45
2022/09/19 11:03:25;;;;;;;5.17;1.77;;;;;;;15.56;49.86;98570.14;1749161;82;21050;-44
2022/09/19 11:06:10;;;;;;;5.00;1.90;;;;;;;15.41;50.60;98567.97;1749086;82;21143;-45
2022/09/19 11:08:49;;;;;;;5.60;2.12;;;;;;;15.25;50.60;98571.91;1748827;82;21544;-45
2022/09/19 11:11:37;;;;;;;4.97;1.95;;;;;;;15.11;50.95;98574.97;1744063;82;21782;-45
2022/09/19 11:14:31;;;;;;;4.53;1.80;;;;;;;15.03;50.46;98580.34;1740125;82;21062;-45
2022/09/19 11:17:27;;;;;;;3.27;1.65;;;;;;;15.07;50.90;98589.27;1741370;82;21078;-44
2022/09/19 11:20:08;;;;;;;5.65;1.95;;;;;;;15.14;50.97;98590.55;1741035;82;21230;-45
2022/09/19 11:26:23;;;;;;;4.05;2.00;;;;;;;15.21;51.45;98597.87;1782689;79;23773;-44
2022/09/19 11:29:10;;;;;;;6.67;1.80;;;;;;;15.17;51.33;98613.52;1720358;81;20943;-44
2022/09/19 11:32:03;;;;;;;6.00;1.77;;;;;;;15.14;50.84;98604.20;1754856;81;21861;-44
2022/09/19 11:35:18;;;;;;;4.60;1.67;;;;;;;15.13;51.45;98610.84;1726488;83;21004;-44
2022/09/19 11:38:19;;;;;;;3.45;1.50;;;;;;;15.11;51.17;98613.20;1711752;82;21414;-44
2022/09/19 11:41:06;;;;;;;4.30;1.62;;;;;;;15.08;51.38;98612.66;1694034;84;21023;-44
2022/09/19 11:43:59;;;;;;;4.37;1.70;;;;;;;15.05;51.49;98608.61;1694518;84;21047;-44
2022/09/19 11:46:52;;;;;;;4.28;1.50;;;;;;;15.26;51.17;98612.44;1689002;84;22151;-44
2022/09/19 11:49:37;;;;;;;3.98;1.82;;;;;;;15.73;50.49;98606.61;1694084;84;20958;-44
2022/09/19 11:52:33;;;;;;;3.77;1.42;;;;;;;16.19;47.63;98613.34;1694138;84;20940;-44
2022/09/19 11:55:37;;;;;;;5.00;1.52;;;;;;;16.27;45.69;98614.77;1694191;84;21564;-44
2022/09/19 11:58:29;;;;;;;3.60;1.65;;;;;;;16.40;46.11;98611.64;1694122;84;21116;-44
2022/09/19 12:01:35;;;;;;;4.40;1.42;;;;;;;16.85;45.09;98616.92;1680002;84;21205;-45
2022/09/19 12:04:23;;;;;;;2.77;1.80;;;;;;;17.33;43.76;98615.63;1694075;84;20984;-44
2022/09/19 12:07:32;;;;;;;5.22;1.80;;;;;;;17.43;43.55;98607.02;1694243;84;20944;-44
2022/09/19 12:10:18;;;;;;;4.40;1.83;;;;;;;17.29;43.99;98616.28;1694678;84;21043;-44
2022/09/19 12:12:57;;;;;;;4.85;1.37;;;;;;;17.18;44.59;98613.00;1694764;84;20992;-44
2022/09/19 12:15:31;;;;;;;3.90;1.50;;;;;;;17.45;43.90;98618.31;1692386;84;22116;-45
2022/09/19 12:18:12;;;;;;;3.72;1.50;;;;;;;17.87;41.79;98622.91;1666733;84;21015;-45
2022/09/19 12:20:46;;;;;;;3.12;1.57;;;;;;;18.28;40.66;98612.75;1694304;84;20967;-44
2022/09/19 12:26:12;;;;;;;3.27;1.55;;;;;;;18.98;39.49;98617.05;1693388;84;21076;-45
2022/09/19 12:28:41;;;;;;;2.35;1.45;;;;;;;19.37;37.96;98606.95;1694244;84;21139;-45
2022/09/19 12:31:11;;;;;;;3.02;1.50;;;;;;;19.66;37.68;98606.92;1694042;84;21075;-45
2022/09/19 12:33:51;;;;;;;3.77;1.73;;;;;;;19.88;38.43;98621.59;1694653;84;20988;-45
2022/09/19 12:36:32;;;;;;;1.77;1.05;;;;;;;20.11;36.43;98606.72;1693798;84;21637;-45
2022/09/19 12:39:16;;;;;;;3.12;1.30;;;;;;;20.27;35.80;98610.12;1693816;84;21043;-45
2022/09/19 12:41:58;;;;;;;3.75;1.40;;;;;;;20.16;36.05;98622.68;1693452;84;23158;-45
2022/09/19 12:44:57;;;;;;;4.42;1.60;;;;;;;19.88;36.57;98622.96;1693636;84;20924;-45
2022/09/19 12:47:58;;;;;;;2.65;1.45;;;;;;;19.49;37.51;98630.99;1686882;84;22022;-45